createdAt,value
2023-01-20T00:02:08.300Z,99976.50
2023-01-20T00:04:42.946Z,99978.09
2023-01-20T00:07:13.479Z,99977.44
2023-01-20T00:09:43.953Z,99977.30
2023-01-20T00:12:18.989Z,99983.11
2023-01-20T00:14:52.573Z,99984.80
2023-01-20T00:17:23.429Z,99986.70
2023-01-20T00:19:56.211Z,99986.85
2023-01-20T00:22:30.002Z,99986.27
2023-01-20T00:25:01.622Z,99989.44
2023-01-20T00:27:34.905Z,99994.27
2023-01-20T00:30:06.581Z,99994.29
2023-01-20T00:32:45.181Z,99992.93
2023-01-20T00:35:19.161Z,99991.83
2023-01-20T00:37:53.452Z,99995.44
2023-01-20T00:40:23.882Z,99991.72
2023-01-20T00:42:56.972Z,99998.70
2023-01-20T00:45:31.569Z,99999.80
2023-01-20T00:48:06.974Z,100004.25
2023-01-20T00:50:37.469Z,100006.52
2023-01-20T00:53:11.410Z,100013.66
2023-01-20T00:55:42.081Z,100021.98
2023-01-20T00:58:12.687Z,100029.30
2023-01-20T01:00:46.695Z,100038.58
2023-01-20T01:03:17.564Z,100040.91
2023-01-20T01:05:48.215Z,100045.63
2023-01-20T01:08:19.086Z,100048.61
2023-01-20T01:10:49.644Z,100051.53
2023-01-20T01:13:20.088Z,100052.08
2023-01-20T01:15:51.927Z,100050.64
2023-01-20T01:18:22.665Z,100050.51
2023-01-20T01:20:56.491Z,100049.17
2023-01-20T01:23:27.932Z,100059.27
2023-01-20T01:25:59.000Z,100060.36
2023-01-20T01:28:33.871Z,100061.60
2023-01-20T01:31:07.697Z,100064.45
2023-01-20T01:33:39.792Z,100066.59
2023-01-20T01:44:06.046Z,100068.05
2023-01-20T01:46:36.581Z,100067.55
2023-01-20T01:49:22.732Z,100061.14
2023-01-20T01:52:00.556Z,100053.54
2023-01-20T01:54:46.594Z,100048.52
2023-01-20T01:57:17.129Z,100051.30
2023-01-20T01:59:47.326Z,100055.70
2023-01-20T02:02:23.988Z,100062.63
2023-01-20T02:04:54.687Z,100061.25
2023-01-20T02:07:27.313Z,100067.12
2023-01-20T02:09:57.990Z,100071.53
2023-01-20T02:12:28.505Z,100073.99
2023-01-20T02:15:01.400Z,100077.70
2023-01-20T02:17:45.713Z,100083.45
2023-01-20T02:20:16.120Z,100091.39
2023-01-20T02:23:27.172Z,100096.61
2023-01-20T02:26:26.348Z,100102.96
2023-01-20T02:29:19.952Z,100100.06
2023-01-20T02:32:32.802Z,100096.83
2023-01-20T02:35:19.774Z,100095.27
2023-01-20T02:37:56.287Z,100101.59
2023-01-20T02:41:01.283Z,100103.96
2023-01-20T02:44:04.560Z,100107.14
2023-01-20T02:46:45.290Z,100107.86
2023-01-20T02:49:29.397Z,100108.98
2023-01-20T02:52:15.320Z,100110.09
2023-01-20T02:54:51.672Z,100109.98
2023-01-20T02:57:31.812Z,100113.33
2023-01-20T03:00:09.837Z,100116.17
2023-01-20T03:02:44.604Z,100118.37
2023-01-20T03:05:43.624Z,100123.70
2023-01-20T03:08:20.373Z,100126.65
2023-01-20T03:10:53.258Z,100126.25
2023-01-20T03:13:43.562Z,100125.86
2023-01-20T03:16:20.827Z,100119.45
2023-01-20T03:18:56.227Z,100116.71
2023-01-20T03:21:28.557Z,100114.27
2023-01-20T03:24:03.407Z,100108.60
2023-01-20T03:26:38.126Z,100107.33
2023-01-20T03:29:11.765Z,100110.08
2023-01-20T03:31:52.649Z,100111.98
2023-01-20T03:34:29.222Z,100107.05
2023-01-20T03:37:03.211Z,100104.73
2023-01-20T03:39:35.060Z,100105.31
2023-01-20T03:42:27.124Z,100109.55
2023-01-20T03:45:10.707Z,100112.02
2023-01-20T03:48:03.352Z,100115.14
2023-01-20T03:50:48.692Z,100114.04
2023-01-20T03:53:45.955Z,100114.64
2023-01-20T03:56:45.839Z,100116.38
2023-01-20T04:00:09.042Z,100122.96
2023-01-20T04:02:45.279Z,100124.83
2023-01-20T04:05:41.658Z,100125.64
2023-01-20T04:09:02.833Z,100132.58
2023-01-20T04:11:54.021Z,100141.92
2023-01-20T04:14:59.110Z,100146.42
2023-01-20T04:17:36.379Z,100152.80
2023-01-20T04:20:26.064Z,100156.55
2023-01-20T04:23:11.085Z,100166.91
2023-01-20T04:25:54.995Z,100172.30
2023-01-20T04:28:46.116Z,100176.19
2023-01-20T04:31:31.277Z,100176.48
2023-01-20T04:34:17.110Z,100178.65
2023-01-20T04:37:06.098Z,100188.90
2023-01-20T04:39:45.201Z,100192.09
2023-01-20T04:42:45.501Z,100198.58
2023-01-20T04:45:20.120Z,100203.62
2023-01-20T04:47:56.263Z,100208.52
2023-01-20T04:51:00.120Z,100215.31
2023-01-20T04:53:43.200Z,100216.63
2023-01-20T04:56:23.801Z,100213.34
2023-01-20T04:59:32.093Z,100212.92
2023-01-20T05:02:10.442Z,100217.83
2023-01-20T05:06:04.756Z,100223.92
2023-01-20T05:08:44.500Z,100230.52
2023-01-20T05:11:28.316Z,100234.50
2023-01-20T05:14:18.759Z,100236.44
2023-01-20T05:17:10.057Z,100240.87
2023-01-20T05:19:45.475Z,100242.16
2023-01-20T05:22:44.700Z,100248.50
2023-01-20T05:25:35.583Z,100255.09
2023-01-20T05:28:41.692Z,100257.02
2023-01-20T05:31:48.725Z,100261.70
2023-01-20T05:34:28.471Z,100267.08
2023-01-20T05:37:19.674Z,100262.35
2023-01-20T05:40:10.731Z,100263.35
2023-01-20T05:42:48.843Z,100265.73
2023-01-20T05:45:32.902Z,100275.16
2023-01-20T05:48:10.886Z,100279.15
2023-01-20T05:51:12.699Z,100286.75
2023-01-20T05:53:54.573Z,100292.83
2023-01-20T05:57:02.628Z,100301.58
2023-01-20T05:59:36.672Z,100312.38
2023-01-20T06:02:54.634Z,100322.96
2023-01-20T06:05:33.681Z,100331.98
2023-01-20T06:08:19.423Z,100339.92
2023-01-20T06:10:59.446Z,100348.13
2023-01-20T06:13:40.657Z,100352.91
2023-01-20T06:16:34.688Z,100359.73
2023-01-20T06:19:15.740Z,100365.50
2023-01-20T06:22:06.284Z,100372.41
2023-01-20T06:24:45.255Z,100381.55
2023-01-20T06:27:19.214Z,100386.84
2023-01-20T06:29:51.321Z,100391.27
2023-01-20T06:32:22.937Z,100397.59
2023-01-20T06:34:57.296Z,100401.20
2023-01-20T06:37:27.964Z,100397.80
2023-01-20T06:39:59.087Z,100402.75
2023-01-20T06:42:34.370Z,100409.19
2023-01-20T06:45:27.754Z,100413.48
2023-01-20T06:47:59.203Z,100416.16
2023-01-20T06:50:42.676Z,100417.59
2023-01-20T06:53:19.089Z,100422.15
2023-01-20T06:55:57.726Z,100424.53
2023-01-20T06:58:32.869Z,100431.84
2023-01-20T07:01:12.385Z,100441.00
2023-01-20T07:03:46.797Z,100445.91
2023-01-20T07:06:27.889Z,100449.27
2023-01-20T07:09:00.419Z,100453.33
2023-01-20T07:11:31.792Z,100453.32
2023-01-20T07:14:02.687Z,100454.26
2023-01-20T07:16:33.997Z,100458.87
2023-01-20T07:19:04.403Z,100462.03
2023-01-20T07:21:34.821Z,100463.59
2023-01-20T07:24:10.276Z,100459.39
2023-01-20T07:26:40.939Z,100459.15
2023-01-20T07:29:16.003Z,100461.55
2023-01-20T07:31:49.979Z,100467.25
2023-01-20T07:34:22.169Z,100473.60
2023-01-20T07:36:56.601Z,100477.08
2023-01-20T07:39:27.305Z,100479.13
2023-01-20T07:41:57.776Z,100481.73
2023-01-20T07:44:28.701Z,100488.14
2023-01-20T07:47:04.047Z,100492.25
2023-01-20T07:49:34.776Z,100499.45
2023-01-20T07:52:05.644Z,100505.98
2023-01-20T07:54:36.298Z,100508.09
2023-01-20T07:57:07.068Z,100515.10
2023-01-20T07:59:39.833Z,100521.46
2023-01-20T08:02:15.740Z,100525.79
2023-01-20T08:04:48.152Z,100531.10
2023-01-20T08:07:18.883Z,100536.27
2023-01-20T08:09:50.631Z,100536.29
2023-01-20T08:12:21.041Z,100536.09
2023-01-20T08:14:52.111Z,100535.34
2023-01-20T08:17:23.151Z,100535.07
2023-01-20T08:19:59.682Z,100538.47
2023-01-20T08:22:30.633Z,100542.86
2023-01-20T08:25:01.267Z,100550.16
2023-01-20T08:27:34.729Z,100555.16
2023-01-20T08:30:05.583Z,100560.46
2023-01-20T08:32:36.593Z,100561.59
2023-01-20T08:35:10.768Z,100559.81
2023-01-20T08:37:41.450Z,100560.11
2023-01-20T08:40:15.154Z,100561.52
2023-01-20T08:42:45.816Z,100559.78
2023-01-20T08:45:19.733Z,100557.81
2023-01-20T08:47:50.240Z,100561.89
2023-01-20T08:50:23.601Z,100567.55
2023-01-20T08:52:54.355Z,100570.39
2023-01-20T08:55:29.570Z,100570.40
2023-01-20T08:58:01.316Z,100573.81
2023-01-20T09:00:33.242Z,100573.56
2023-01-20T09:03:04.184Z,100582.04
2023-01-20T09:05:38.384Z,100581.99
2023-01-20T09:08:08.926Z,100575.48
2023-01-20T09:10:39.516Z,100576.48
2023-01-20T09:13:11.456Z,100575.39
2023-01-20T09:15:42.282Z,100585.73
2023-01-20T09:18:12.920Z,100594.83
2023-01-20T09:20:46.645Z,100601.58
2023-01-20T09:23:20.541Z,100601.63
2023-01-20T09:25:51.169Z,100599.86
2023-01-20T09:28:23.749Z,100591.35
2023-01-20T09:31:00.548Z,100588.98
2023-01-20T09:33:31.022Z,100577.08
2023-01-20T09:36:02.111Z,100570.71
2023-01-20T09:38:50.140Z,100572.21
2023-01-20T09:41:52.954Z,100574.39
2023-01-20T09:44:51.536Z,100581.46
2023-01-20T09:47:32.265Z,100585.20
2023-01-20T09:50:58.047Z,100584.09
2023-01-20T09:53:50.652Z,100575.12
2023-01-20T09:56:26.602Z,100568.29
2023-01-20T09:59:09.007Z,100566.56
2023-01-20T10:01:46.581Z,100575.30
2023-01-20T10:04:26.437Z,100577.25
2023-01-20T10:07:04.979Z,100581.61
2023-01-20T10:09:38.526Z,100582.64
2023-01-20T10:12:24.814Z,100587.08
2023-01-20T10:15:24.688Z,100588.74
2023-01-20T10:18:09.726Z,100603.40
2023-01-20T10:21:06.772Z,100608.04
2023-01-20T10:23:47.437Z,100611.90
2023-01-20T10:26:31.402Z,100604.72
2023-01-20T10:29:04.136Z,100607.54
2023-01-20T10:31:40.590Z,100614.09
2023-01-20T10:34:19.614Z,100619.58
2023-01-20T10:37:08.754Z,100625.50
2023-01-20T10:39:50.931Z,100627.96
2023-01-20T10:42:22.309Z,100635.38
2023-01-20T10:44:55.539Z,100634.26
2023-01-20T10:47:35.663Z,100636.11
2023-01-20T10:50:39.220Z,100637.69
2023-01-20T10:53:45.496Z,100644.00
2023-01-20T10:56:26.893Z,100648.10
2023-01-20T10:58:58.298Z,100647.59
2023-01-20T11:01:29.188Z,100643.58
2023-01-20T11:04:08.345Z,100646.17
2023-01-20T11:06:40.812Z,100648.52
2023-01-20T11:09:25.929Z,100652.10
2023-01-20T11:11:59.526Z,100657.11
2023-01-20T11:14:35.132Z,100657.96
2023-01-20T11:17:14.973Z,100656.65
2023-01-20T11:19:52.153Z,100657.80
2023-01-20T11:22:35.003Z,100658.27
2023-01-20T11:25:27.261Z,100658.84
2023-01-20T11:27:58.711Z,100660.25
2023-01-20T11:30:37.198Z,100661.35
2023-01-20T11:33:22.560Z,100660.77
2023-01-20T11:36:08.314Z,100661.57
2023-01-20T11:38:46.402Z,100661.79
2023-01-20T11:41:25.243Z,100666.36
2023-01-20T11:44:00.008Z,100664.05
2023-01-20T11:46:33.474Z,100662.09
2023-01-20T11:49:24.530Z,100659.36
2023-01-20T11:51:57.643Z,100662.46
2023-01-20T11:54:30.779Z,100662.65
2023-01-20T11:57:09.233Z,100664.77
2023-01-20T11:59:49.986Z,100667.11
2023-01-20T12:02:30.782Z,100667.39
2023-01-20T12:05:25.674Z,100671.91
2023-01-20T12:07:58.623Z,100677.48
2023-01-20T12:10:36.573Z,100678.01
2023-01-20T12:13:30.100Z,100684.60
2023-01-20T12:16:02.899Z,100681.55
2023-01-20T12:18:45.334Z,100684.36
2023-01-20T12:21:20.178Z,100684.40
2023-01-20T12:23:57.706Z,100686.28
2023-01-20T12:31:05.280Z,100693.05
2023-01-20T12:33:47.222Z,100694.72
2023-01-20T12:36:33.550Z,100701.80
2023-01-20T12:39:26.172Z,100702.02
2023-01-20T12:42:13.005Z,100708.63
2023-01-20T12:49:33.450Z,100717.80
2023-01-20T12:52:35.299Z,100724.23
2023-01-20T12:55:38.590Z,100730.27
2023-01-20T12:58:21.472Z,100737.05
2023-01-20T13:00:59.146Z,100733.56
2023-01-20T13:03:56.915Z,100734.62
2023-01-20T13:07:11.453Z,100736.27
2023-01-20T13:09:50.148Z,100742.07
2023-01-20T13:12:45.221Z,100748.83
2023-01-20T13:15:20.392Z,100746.73
2023-01-20T13:18:09.082Z,100748.38
2023-01-20T13:20:43.404Z,100752.48
2023-01-20T13:23:22.466Z,100750.77
2023-01-20T13:25:54.436Z,100748.29
2023-01-20T13:28:28.311Z,100748.95
2023-01-20T13:31:04.315Z,100751.71
2023-01-20T13:33:44.181Z,100754.45
2023-01-20T13:36:23.512Z,100752.36
2023-01-20T13:39:31.813Z,100754.48
2023-01-20T13:42:02.632Z,100753.59
2023-01-20T13:44:42.941Z,100754.85
2023-01-20T13:47:54.557Z,100759.52
2023-01-20T13:50:38.291Z,100759.62
2023-01-20T13:53:29.696Z,100761.05
2023-01-20T13:56:31.613Z,100765.20
2023-01-20T13:59:01.958Z,100762.42
2023-01-20T14:01:32.537Z,100762.98
2023-01-20T14:04:16.751Z,100768.65
2023-01-20T14:06:55.442Z,100770.33
2023-01-20T14:09:27.812Z,100774.55
2023-01-20T14:12:01.570Z,100779.42
2023-01-20T14:14:33.349Z,100780.81
2023-01-20T14:17:27.172Z,100784.83
2023-01-20T14:20:07.344Z,100789.18
2023-01-20T14:22:44.933Z,100789.99
2023-01-20T14:25:27.330Z,100794.77
2023-01-20T14:27:58.039Z,100798.35
2023-01-20T14:30:29.494Z,100799.81
2023-01-20T14:33:01.704Z,100803.31
2023-01-20T14:35:38.760Z,100809.63
2023-01-20T14:38:20.002Z,100809.30
2023-01-20T14:40:53.719Z,100806.05
2023-01-20T14:43:24.489Z,100806.73
2023-01-20T14:46:00.234Z,100805.10
2023-01-20T14:48:34.796Z,100803.38
2023-01-20T14:51:12.163Z,100800.40
2023-01-20T14:53:47.151Z,100801.30
2023-01-20T14:56:23.897Z,100805.98
2023-01-20T14:58:56.520Z,100809.05
2023-01-20T15:01:31.487Z,100805.16
2023-01-20T15:04:06.265Z,100804.57
2023-01-20T15:06:36.968Z,100808.61
2023-01-20T15:09:26.720Z,100816.19
2023-01-20T15:12:34.445Z,100820.16
2023-01-20T15:15:33.881Z,100820.92
2023-01-20T15:18:17.616Z,100830.98
2023-01-20T15:20:55.059Z,100836.90
2023-01-20T15:23:38.460Z,100846.08
2023-01-20T15:26:31.286Z,100852.58
2023-01-20T15:29:03.123Z,100854.77
2023-01-20T15:31:33.451Z,100857.36
2023-01-20T15:34:05.222Z,100856.46
2023-01-20T15:36:37.500Z,100864.30
2023-01-20T15:39:22.019Z,100877.55
2023-01-20T15:41:58.708Z,100878.91
2023-01-20T15:44:29.161Z,100884.35
2023-01-20T15:47:02.268Z,100889.75
2023-01-20T15:49:32.706Z,100901.11
2023-01-20T15:52:07.250Z,100904.81
2023-01-20T15:54:37.717Z,100903.41
2023-01-20T15:57:15.896Z,100906.02
2023-01-20T15:59:50.603Z,100903.44
2023-01-20T16:02:23.557Z,100902.40
2023-01-20T16:04:54.146Z,100908.27
2023-01-20T16:07:24.543Z,100908.09
2023-01-20T16:09:58.731Z,100910.91
2023-01-20T16:12:31.007Z,100919.05
2023-01-20T16:15:05.607Z,100923.30
2023-01-20T16:17:36.079Z,100928.75
2023-01-20T16:20:12.121Z,100928.72
2023-01-20T16:22:47.539Z,100934.05
2023-01-20T16:25:18.646Z,100943.89
2023-01-20T16:27:50.848Z,100953.30
2023-01-20T16:30:36.329Z,100959.09
2023-01-20T16:33:18.200Z,100968.67
2023-01-20T16:35:57.779Z,100974.55
2023-01-20T16:38:30.132Z,100978.02
2023-01-20T16:41:13.441Z,100979.63
2023-01-20T16:43:44.344Z,100984.27
2023-01-20T16:46:33.476Z,100983.31
2023-01-20T16:49:06.375Z,100982.52
2023-01-20T16:51:36.821Z,100981.44
2023-01-20T16:54:07.497Z,100982.67
2023-01-20T16:56:40.071Z,100987.20
2023-01-20T16:59:13.459Z,100995.83
2023-01-20T17:01:51.243Z,100998.30
2023-01-20T17:04:25.294Z,100998.04
2023-01-20T17:06:56.409Z,101001.91
2023-01-20T17:09:45.390Z,101000.34
2023-01-20T17:12:36.883Z,101003.48
2023-01-20T17:15:08.386Z,101004.88
2023-01-20T17:17:46.290Z,101004.66
2023-01-20T17:20:19.543Z,101003.80
2023-01-20T17:22:52.737Z,101002.71
2023-01-20T17:25:24.321Z,101007.57
2023-01-20T17:27:55.320Z,101004.60
2023-01-20T17:30:26.938Z,101006.84
2023-01-20T17:32:59.945Z,101013.42
2023-01-20T17:35:32.680Z,101014.55
2023-01-20T17:38:07.437Z,101014.25
2023-01-20T17:40:41.598Z,101014.01
2023-01-20T17:43:14.881Z,101021.36
2023-01-20T17:45:46.674Z,101019.16
2023-01-20T17:48:19.260Z,101020.87
2023-01-20T17:50:53.378Z,101024.59
2023-01-20T17:53:24.654Z,101024.21
2023-01-20T17:56:10.972Z,101026.12
2023-01-20T17:58:43.934Z,101024.60
2023-01-20T18:01:19.195Z,101026.19
2023-01-20T18:03:52.941Z,101029.73
2023-01-20T18:06:28.297Z,101034.11
2023-01-20T18:09:03.447Z,101037.52
2023-01-20T18:11:59.167Z,101037.03
2023-01-20T18:14:31.782Z,101033.90
2023-01-20T18:17:06.226Z,101033.61
2023-01-20T18:19:40.439Z,101031.48
2023-01-20T18:22:12.986Z,101031.77
2023-01-20T18:24:51.616Z,101034.48
2023-01-20T18:27:32.963Z,101036.56
2023-01-20T18:30:04.824Z,101045.59
2023-01-20T18:33:32.074Z,101049.84
2023-01-20T18:36:05.160Z,101049.33
2023-01-20T18:38:43.725Z,101043.23
2023-01-20T18:41:19.050Z,101044.80
2023-01-20T18:43:54.052Z,101049.53
2023-01-20T18:46:28.999Z,101051.37
2023-01-20T18:49:01.580Z,101047.52
2023-01-20T18:51:34.808Z,101048.63
2023-01-20T18:54:12.867Z,101049.87
2023-01-20T18:56:45.733Z,101056.89
2023-01-20T18:59:21.097Z,101055.86
2023-01-20T19:02:00.326Z,101059.59
2023-01-20T19:04:34.280Z,101065.31
2023-01-20T19:07:15.322Z,101066.30
2023-01-20T19:09:52.418Z,101068.45
2023-01-20T19:12:28.516Z,101069.09
2023-01-20T19:15:02.368Z,101075.05
2023-01-20T19:17:35.126Z,101078.07
2023-01-20T19:20:07.615Z,101080.13
2023-01-20T19:22:41.426Z,101084.15
2023-01-20T19:25:22.301Z,101085.55
2023-01-20T19:27:57.873Z,101088.84
2023-01-20T19:30:30.190Z,101091.45
2023-01-20T19:33:04.374Z,101089.27
2023-01-20T19:35:41.834Z,101091.95
2023-01-20T19:38:15.034Z,101093.08
2023-01-20T19:40:47.392Z,101093.47
2023-01-20T19:43:22.729Z,101098.03
2023-01-20T19:45:55.720Z,101102.54
2023-01-20T19:48:35.353Z,101102.33
2023-01-20T19:51:54.198Z,101100.66
2023-01-20T19:54:32.164Z,101099.58
2023-01-20T19:57:10.534Z,101102.33
2023-01-20T19:59:49.096Z,101105.30
2023-01-20T20:02:24.023Z,101108.28
2023-01-20T20:04:56.025Z,101107.86
2023-01-20T20:07:29.481Z,101108.27
2023-01-20T20:10:02.461Z,101110.59
2023-01-20T20:12:48.543Z,101117.63
2023-01-20T20:15:21.553Z,101122.08
2023-01-20T20:18:01.332Z,101120.95
2023-01-20T20:20:35.753Z,101116.92
2023-01-20T20:23:12.265Z,101118.34
2023-01-20T20:25:57.093Z,101116.61
2023-01-20T20:28:31.813Z,101113.91
2023-01-20T20:31:15.608Z,101115.96
2023-01-20T20:33:48.716Z,101123.95
2023-01-20T20:36:20.367Z,101132.05
2023-01-20T20:38:54.752Z,101133.46
2023-01-20T20:41:29.526Z,101129.94
2023-01-20T20:44:05.402Z,101128.02
2023-01-20T20:46:40.947Z,101122.80
2023-01-20T20:49:20.180Z,101119.80
2023-01-20T20:51:51.742Z,101127.25
2023-01-20T20:54:28.471Z,101127.96
2023-01-20T20:57:04.882Z,101130.27
2023-01-20T20:59:53.930Z,101127.40
2023-01-20T21:02:32.018Z,101122.67
2023-01-20T21:05:07.111Z,101123.77
2023-01-20T21:07:42.903Z,101126.58
2023-01-20T21:10:17.580Z,101132.16
2023-01-20T21:12:49.553Z,101135.08
2023-01-20T21:15:28.273Z,101131.61
2023-01-20T21:18:03.631Z,101131.59
2023-01-20T21:20:38.548Z,101128.55
2023-01-20T21:23:11.278Z,101134.63
2023-01-20T21:25:46.529Z,101133.60
2023-01-20T21:28:21.002Z,101138.06
2023-01-20T21:30:56.502Z,101138.77
2023-01-20T21:33:30.900Z,101135.69
2023-01-20T21:36:24.574Z,101135.95
2023-01-20T21:38:58.175Z,101138.98
2023-01-20T21:41:29.656Z,101138.25
2023-01-20T21:44:20.027Z,101137.99
2023-01-20T21:46:54.589Z,101137.39
2023-01-20T21:49:48.950Z,101140.66
2023-01-20T21:52:47.345Z,101144.61
2023-01-20T21:55:22.238Z,101142.47
2023-01-20T21:57:53.125Z,101138.99
2023-01-20T22:00:32.731Z,101135.48
2023-01-20T22:03:03.452Z,101136.17
2023-01-20T22:05:34.117Z,101140.34
2023-01-20T22:08:10.890Z,101140.95
2023-01-20T22:10:42.020Z,101134.63
2023-01-20T22:13:12.834Z,101137.02
2023-01-20T22:16:06.959Z,101142.20
2023-01-20T22:19:07.753Z,101148.36
2023-01-20T22:21:38.340Z,101150.06
2023-01-20T22:24:09.329Z,101151.08
2023-01-20T22:26:43.867Z,101151.23
2023-01-20T22:29:25.193Z,101158.20
2023-01-20T22:31:59.213Z,101156.80
2023-01-20T22:34:30.121Z,101157.10
2023-01-20T22:37:03.642Z,101157.77
2023-01-20T22:39:34.081Z,101152.21
2023-01-20T22:42:07.162Z,101144.85
2023-01-20T22:44:39.821Z,101145.24
2023-01-20T22:47:11.357Z,101140.80
2023-01-20T22:49:43.821Z,101140.91
2023-01-20T22:52:14.476Z,101139.63
2023-01-20T22:54:49.559Z,101137.77
2023-01-20T22:57:28.451Z,101137.54
2023-01-20T22:59:58.866Z,101128.53
2023-01-20T23:02:30.723Z,101134.55
2023-01-20T23:05:02.175Z,101130.59
2023-01-20T23:07:49.703Z,101129.69
2023-01-20T23:11:03.115Z,101135.95
2023-01-20T23:14:44.522Z,101139.26
2023-01-20T23:18:46.730Z,101148.52
2023-01-20T23:21:49.219Z,101141.71
2023-01-20T23:25:06.075Z,101130.33
2023-01-20T23:28:13.162Z,101133.02
2023-01-20T23:31:16.666Z,101134.27
2023-01-20T23:34:22.115Z,101133.46
2023-01-20T23:37:15.001Z,101133.08
2023-01-20T23:40:29.967Z,101130.35
2023-01-20T23:43:27.263Z,101126.71
2023-01-20T23:46:41.051Z,101121.73
2023-01-20T23:49:45.189Z,101116.45
2023-01-20T23:53:17.474Z,101104.04
2023-01-20T23:56:24.220Z,101086.14
2023-01-20T23:59:15.383Z,101080.24
